sensor_id;sensor_type;location;lat;lon;timestamp;P1;durP1;ratioP1;P2;durP2;ratioP2
74059;SDS011;62414;53.436;8.828;2023-05-16T00:01:38;10.13;;;1.50;;
74059;SDS011;62414;53.436;8.828;2023-05-16T00:04:03;6.43;;;1.37;;
74059;SDS011;62414;53.436;8.828;2023-05-16T00:06:30;11.70;;;1.60;;
74059;SDS011;62414;53.436;8.828;2023-05-16T00:08:56;7.05;;;1.40;;
74059;SDS011;62414;53.436;8.828;2023-05-16T00:11:21;12.25;;;1.60;;
74059;SDS011;62414;53.436;8.828;2023-05-16T00:13:47;11.90;;;1.67;;
74059;SDS011;62414;53.436;8.828;2023-05-16T00:16:12;7.93;;;1.60;;
74059;SDS011;62414;53.436;8.828;2023-05-16T00:18:37;7.83;;;1.40;;
74059;SDS011;62414;53.436;8.828;2023-05-16T00:21:03;9.85;;;1.55;;
74059;SDS011;62414;53.436;8.828;2023-05-16T00:23:30;14.47;;;1.80;;
74059;SDS011;62414;53.436;8.828;2023-05-16T00:25:56;11.40;;;1.98;;
74059;SDS011;62414;53.436;8.828;2023-05-16T00:28:21;13.53;;;1.90;;
74059;SDS011;62414;53.436;8.828;2023-05-16T00:30:47;13.07;;;1.80;;
74059;SDS011;62414;53.436;8.828;2023-05-16T00:33:14;11.73;;;1.83;;
74059;SDS011;62414;53.436;8.828;2023-05-16T00:35:40;8.80;;;1.47;;
74059;SDS011;62414;53.436;8.828;2023-05-16T00:38:05;9.20;;;1.57;;
74059;SDS011;62414;53.436;8.828;2023-05-16T00:40:32;12.70;;;1.73;;
74059;SDS011;62414;53.436;8.828;2023-05-16T00:42:57;12.00;;;1.80;;
74059;SDS011;62414;53.436;8.828;2023-05-16T00:45:25;10.27;;;1.70;;
74059;SDS011;62414;53.436;8.828;2023-05-16T00:47:50;12.60;;;1.90;;
74059;SDS011;62414;53.436;8.828;2023-05-16T00:50:16;10.70;;;1.63;;
74059;SDS011;62414;53.436;8.828;2023-05-16T00:52:42;15.67;;;1.93;;
74059;SDS011;62414;53.436;8.828;2023-05-16T00:55:07;11.43;;;1.50;;
74059;SDS011;62414;53.436;8.828;2023-05-16T00:57:35;11.05;;;1.77;;
74059;SDS011;62414;53.436;8.828;2023-05-16T01:00:01;12.77;;;1.77;;
74059;SDS011;62414;53.436;8.828;2023-05-16T01:02:27;11.00;;;1.88;;
74059;SDS011;62414;53.436;8.828;2023-05-16T01:04:52;11.87;;;1.40;;
74059;SDS011;62414;53.436;8.828;2023-05-16T01:07:18;7.93;;;1.48;;
74059;SDS011;62414;53.436;8.828;2023-05-16T01:09:43;10.43;;;1.90;;
74059;SDS011;62414;53.436;8.828;2023-05-16T01:12:10;10.35;;;1.67;;
74059;SDS011;62414;53.436;8.828;2023-05-16T01:14:42;9.33;;;1.43;;
74059;SDS011;62414;53.436;8.828;2023-05-16T01:17:12;7.50;;;1.70;;
74059;SDS011;62414;53.436;8.828;2023-05-16T01:19:46;11.15;;;2.17;;
74059;SDS011;62414;53.436;8.828;2023-05-16T01:22:19;15.65;;;1.98;;
74059;SDS011;62414;53.436;8.828;2023-05-16T01:24:55;8.88;;;1.60;;
74059;SDS011;62414;53.436;8.828;2023-05-16T01:27:31;12.70;;;2.00;;
74059;SDS011;62414;53.436;8.828;2023-05-16T01:29:57;10.98;;;2.03;;
74059;SDS011;62414;53.436;8.828;2023-05-16T01:32:22;13.13;;;2.10;;
74059;SDS011;62414;53.436;8.828;2023-05-16T01:34:48;9.50;;;1.98;;
74059;SDS011;62414;53.436;8.828;2023-05-16T01:37:15;12.27;;;2.15;;
74059;SDS011;62414;53.436;8.828;2023-05-16T01:39:44;13.07;;;2.27;;
74059;SDS011;62414;53.436;8.828;2023-05-16T01:42:13;13.00;;;2.38;;
74059;SDS011;62414;53.436;8.828;2023-05-16T01:44:42;12.52;;;1.92;;
74059;SDS011;62414;53.436;8.828;2023-05-16T01:47:10;8.43;;;2.10;;
74059;SDS011;62414;53.436;8.828;2023-05-16T01:49:38;12.18;;;1.90;;
74059;SDS011;62414;53.436;8.828;2023-05-16T01:52:07;10.37;;;2.60;;
74059;SDS011;62414;53.436;8.828;2023-05-16T01:54:35;12.25;;;2.40;;
74059;SDS011;62414;53.436;8.828;2023-05-16T01:57:03;13.20;;;2.30;;
74059;SDS011;62414;53.436;8.828;2023-05-16T01:59:28;12.95;;;2.20;;
74059;SDS011;62414;53.436;8.828;2023-05-16T02:01:56;18.13;;;3.83;;
74059;SDS011;62414;53.436;8.828;2023-05-16T02:04:22;12.93;;;2.50;;
74059;SDS011;62414;53.436;8.828;2023-05-16T02:06:47;20.77;;;2.25;;
74059;SDS011;62414;53.436;8.828;2023-05-16T02:09:15;14.20;;;2.65;;
74059;SDS011;62414;53.436;8.828;2023-05-16T02:11:40;15.03;;;2.03;;
74059;SDS011;62414;53.436;8.828;2023-05-16T02:14:06;14.37;;;2.00;;
74059;SDS011;62414;53.436;8.828;2023-05-16T02:16:32;16.87;;;1.90;;
74059;SDS011;62414;53.436;8.828;2023-05-16T02:18:59;14.80;;;1.70;;
74059;SDS011;62414;53.436;8.828;2023-05-16T02:21:24;13.07;;;1.98;;
74059;SDS011;62414;53.436;8.828;2023-05-16T02:23:50;14.57;;;1.90;;
74059;SDS011;62414;53.436;8.828;2023-05-16T02:26:15;11.15;;;1.83;;
74059;SDS011;62414;53.436;8.828;2023-05-16T02:28:41;14.80;;;1.80;;
74059;SDS011;62414;53.436;8.828;2023-05-16T02:31:06;18.87;;;1.70;;
74059;SDS011;62414;53.436;8.828;2023-05-16T02:33:32;15.43;;;1.88;;
74059;SDS011;62414;53.436;8.828;2023-05-16T02:35:58;13.87;;;1.70;;
74059;SDS011;62414;53.436;8.828;2023-05-16T02:38:24;16.10;;;2.00;;
74059;SDS011;62414;53.436;8.828;2023-05-16T02:40:50;19.07;;;1.60;;
74059;SDS011;62414;53.436;8.828;2023-05-16T02:43:15;15.05;;;1.70;;
74059;SDS011;62414;53.436;8.828;2023-05-16T02:45:41;15.93;;;1.80;;
74059;SDS011;62414;53.436;8.828;2023-05-16T02:48:06;13.10;;;1.47;;
74059;SDS011;62414;53.436;8.828;2023-05-16T02:50:33;14.43;;;1.83;;
74059;SDS011;62414;53.436;8.828;2023-05-16T02:53:00;13.15;;;1.33;;
74059;SDS011;62414;53.436;8.828;2023-05-16T02:55:26;14.83;;;1.70;;
74059;SDS011;62414;53.436;8.828;2023-05-16T02:57:51;14.15;;;1.33;;
74059;SDS011;62414;53.436;8.828;2023-05-16T03:00:17;10.03;;;1.20;;
74059;SDS011;62414;53.436;8.828;2023-05-16T03:02:43;13.20;;;1.20;;
74059;SDS011;62414;53.436;8.828;2023-05-16T03:05:08;8.03;;;1.27;;
74059;SDS011;62414;53.436;8.828;2023-05-16T03:07:33;13.63;;;1.00;;
74059;SDS011;62414;53.436;8.828;2023-05-16T03:10:00;9.60;;;1.00;;
74059;SDS011;62414;53.436;8.828;2023-05-16T03:12:26;12.30;;;1.15;;
74059;SDS011;62414;53.436;8.828;2023-05-16T03:14:51;11.60;;;1.00;;
74059;SDS011;62414;53.436;8.828;2023-05-16T03:17:17;14.03;;;1.20;;
74059;SDS011;62414;53.436;8.828;2023-05-16T03:19:42;11.33;;;1.20;;
74059;SDS011;62414;53.436;8.828;2023-05-16T03:22:07;9.50;;;0.80;;
74059;SDS011;62414;53.436;8.828;2023-05-16T03:24:33;13.10;;;1.10;;
74059;SDS011;62414;53.436;8.828;2023-05-16T03:27:00;10.93;;;1.23;;
74059;SDS011;62414;53.436;8.828;2023-05-16T03:29:25;13.75;;;1.20;;
74059;SDS011;62414;53.436;8.828;2023-05-16T03:31:51;11.83;;;1.00;;
74059;SDS011;62414;53.436;8.828;2023-05-16T03:34:16;13.57;;;1.30;;
74059;SDS011;62414;53.436;8.828;2023-05-16T03:36:42;11.03;;;1.20;;
74059;SDS011;62414;53.436;8.828;2023-05-16T03:39:07;12.97;;;1.03;;
74059;SDS011;62414;53.436;8.828;2023-05-16T03:41:33;9.98;;;0.90;;
74059;SDS011;62414;53.436;8.828;2023-05-16T03:43:59;8.07;;;0.93;;
74059;SDS011;62414;53.436;8.828;2023-05-16T03:46:25;12.50;;;1.02;;
74059;SDS011;62414;53.436;8.828;2023-05-16T03:48:50;12.27;;;1.00;;
74059;SDS011;62414;53.436;8.828;2023-05-16T03:51:16;11.63;;;1.57;;
74059;SDS011;62414;53.436;8.828;2023-05-16T03:53:41;7.33;;;0.97;;
74059;SDS011;62414;53.436;8.828;2023-05-16T03:56:07;14.90;;;1.20;;
74059;SDS011;62414;53.436;8.828;2023-05-16T03:58:32;9.43;;;0.90;;
74059;SDS011;62414;53.436;8.828;2023-05-16T04:00:59;12.00;;;1.10;;
74059;SDS011;62414;53.436;8.828;2023-05-16T04:03:24;13.60;;;1.40;;
74059;SDS011;62414;53.436;8.828;2023-05-16T04:05:50;9.63;;;0.97;;
74059;SDS011;62414;53.436;8.828;2023-05-16T04:08:15;10.87;;;0.90;;
74059;SDS011;62414;53.436;8.828;2023-05-16T04:10:41;10.83;;;1.10;;
74059;SDS011;62414;53.436;8.828;2023-05-16T04:13:06;10.32;;;1.20;;
74059;SDS011;62414;53.436;8.828;2023-05-16T04:15:31;10.97;;;0.83;;
74059;SDS011;62414;53.436;8.828;2023-05-16T04:17:58;11.40;;;1.10;;
74059;SDS011;62414;53.436;8.828;2023-05-16T04:20:24;9.90;;;1.17;;
74059;SDS011;62414;53.436;8.828;2023-05-16T04:22:49;11.33;;;1.43;;
74059;SDS011;62414;53.436;8.828;2023-05-16T04:25:15;12.40;;;0.93;;
74059;SDS011;62414;53.436;8.828;2023-05-16T04:27:40;13.73;;;1.40;;
74059;SDS011;62414;53.436;8.828;2023-05-16T04:30:06;12.87;;;1.80;;
74059;SDS011;62414;53.436;8.828;2023-05-16T04:32:32;8.18;;;1.27;;
74059;SDS011;62414;53.436;8.828;2023-05-16T04:34:59;9.90;;;1.20;;
74059;SDS011;62414;53.436;8.828;2023-05-16T04:37:25;9.50;;;1.05;;
74059;SDS011;62414;53.436;8.828;2023-05-16T04:39:50;10.10;;;1.17;;
74059;SDS011;62414;53.436;8.828;2023-05-16T04:42:16;12.82;;;1.10;;
74059;SDS011;62414;53.436;8.828;2023-05-16T04:44:41;10.23;;;1.10;;
74059;SDS011;62414;53.436;8.828;2023-05-16T04:47:06;8.90;;;1.17;;
74059;SDS011;62414;53.436;8.828;2023-05-16T04:49:32;14.07;;;1.47;;
74059;SDS011;62414;53.436;8.828;2023-05-16T04:51:59;12.80;;;2.13;;
74059;SDS011;62414;53.436;8.828;2023-05-16T04:54:24;14.38;;;1.98;;
74059;SDS011;62414;53.436;8.828;2023-05-16T04:56:49;9.23;;;1.20;;
74059;SDS011;62414;53.436;8.828;2023-05-16T04:59:15;13.43;;;1.10;;
74059;SDS011;62414;53.436;8.828;2023-05-16T05:01:40;7.80;;;1.20;;
74059;SDS011;62414;53.436;8.828;2023-05-16T05:04:06;7.10;;;1.00;;
74059;SDS011;62414;53.436;8.828;2023-05-16T05:06:31;10.60;;;1.27;;
74059;SDS011;62414;53.436;8.828;2023-05-16T05:08:58;10.37;;;1.30;;
74059;SDS011;62414;53.436;8.828;2023-05-16T05:11:23;10.88;;;1.10;;
74059;SDS011;62414;53.436;8.828;2023-05-16T05:13:49;11.90;;;1.20;;
74059;SDS011;62414;53.436;8.828;2023-05-16T05:16:14;11.52;;;1.20;;
74059;SDS011;62414;53.436;8.828;2023-05-16T05:18:40;9.97;;;1.20;;
74059;SDS011;62414;53.436;8.828;2023-05-16T05:21:05;9.97;;;1.10;;
74059;SDS011;62414;53.436;8.828;2023-05-16T05:23:30;9.70;;;0.87;;
74059;SDS011;62414;53.436;8.828;2023-05-16T05:25:57;16.05;;;1.65;;
74059;SDS011;62414;53.436;8.828;2023-05-16T05:28:23;11.57;;;1.52;;
74059;SDS011;62414;53.436;8.828;2023-05-16T05:30:48;7.03;;;0.93;;
74059;SDS011;62414;53.436;8.828;2023-05-16T05:33:15;11.03;;;1.30;;
74059;SDS011;62414;53.436;8.828;2023-05-16T05:35:41;10.20;;;1.10;;
74059;SDS011;62414;53.436;8.828;2023-05-16T05:38:06;9.03;;;0.90;;
74059;SDS011;62414;53.436;8.828;2023-05-16T05:40:32;8.77;;;1.10;;
74059;SDS011;62414;53.436;8.828;2023-05-16T05:42:58;8.10;;;1.00;;
74059;SDS011;62414;53.436;8.828;2023-05-16T05:45:24;11.50;;;1.13;;
74059;SDS011;62414;53.436;8.828;2023-05-16T05:47:49;9.10;;;0.90;;
74059;SDS011;62414;53.436;8.828;2023-05-16T05:50:15;7.20;;;1.13;;
74059;SDS011;62414;53.436;8.828;2023-05-16T05:52:41;9.73;;;1.17;;
74059;SDS011;62414;53.436;8.828;2023-05-16T05:55:06;10.30;;;0.90;;
74059;SDS011;62414;53.436;8.828;2023-05-16T05:57:32;8.90;;;0.85;;
74059;SDS011;62414;53.436;8.828;2023-05-16T05:59:59;8.97;;;1.10;;
74059;SDS011;62414;53.436;8.828;2023-05-16T06:02:25;9.13;;;1.00;;
74059;SDS011;62414;53.436;8.828;2023-05-16T06:04:50;12.38;;;1.10;;
74059;SDS011;62414;53.436;8.828;2023-05-16T06:07:16;9.30;;;0.90;;
74059;SDS011;62414;53.436;8.828;2023-05-16T06:09:41;10.07;;;0.80;;
74059;SDS011;62414;53.436;8.828;2023-05-16T06:12:07;8.02;;;0.93;;
74059;SDS011;62414;53.436;8.828;2023-05-16T06:14:33;9.17;;;0.70;;
74059;SDS011;62414;53.436;8.828;2023-05-16T06:16:59;8.98;;;0.90;;
74059;SDS011;62414;53.436;8.828;2023-05-16T06:19:25;16.73;;;1.63;;
74059;SDS011;62414;53.436;8.828;2023-05-16T06:21:50;9.50;;;1.33;;
74059;SDS011;62414;53.436;8.828;2023-05-16T06:24:16;7.70;;;1.20;;
74059;SDS011;62414;53.436;8.828;2023-05-16T06:26:41;9.30;;;0.93;;
74059;SDS011;62414;53.436;8.828;2023-05-16T06:29:07;7.80;;;0.70;;
74059;SDS011;62414;53.436;8.828;2023-05-16T06:31:32;9.00;;;0.90;;
74059;SDS011;62414;53.436;8.828;2023-05-16T06:33:59;7.20;;;0.80;;
74059;SDS011;62414;53.436;8.828;2023-05-16T06:36:24;9.07;;;1.02;;
74059;SDS011;62414;53.436;8.828;2023-05-16T06:38:50;10.67;;;1.13;;
74059;SDS011;62414;53.436;8.828;2023-05-16T06:41:15;8.95;;;0.98;;
74059;SDS011;62414;53.436;8.828;2023-05-16T06:43:41;10.37;;;0.90;;
74059;SDS011;62414;53.436;8.828;2023-05-16T06:46:06;8.43;;;1.03;;
74059;SDS011;62414;53.436;8.828;2023-05-16T06:48:31;6.13;;;0.60;;
74059;SDS011;62414;53.436;8.828;2023-05-16T06:50:58;7.50;;;0.63;;
74059;SDS011;62414;53.436;8.828;2023-05-16T06:53:24;6.53;;;0.70;;
74059;SDS011;62414;53.436;8.828;2023-05-16T06:55:49;6.93;;;0.87;;
74059;SDS011;62414;53.436;8.828;2023-05-16T06:58:14;6.60;;;0.73;;
74059;SDS011;62414;53.436;8.828;2023-05-16T07:00:40;8.43;;;0.77;;
74059;SDS011;62414;53.436;8.828;2023-05-16T07:03:05;9.30;;;0.93;;
74059;SDS011;62414;53.436;8.828;2023-05-16T07:05:31;7.83;;;0.80;;
74059;SDS011;62414;53.436;8.828;2023-05-16T07:07:58;10.30;;;1.10;;
74059;SDS011;62414;53.436;8.828;2023-05-16T07:10:23;11.88;;;0.90;;
74059;SDS011;62414;53.436;8.828;2023-05-16T07:12:49;8.33;;;1.00;;
74059;SDS011;62414;53.436;8.828;2023-05-16T07:15:14;6.90;;;0.80;;
74059;SDS011;62414;53.436;8.828;2023-05-16T07:17:39;11.00;;;0.93;;
74059;SDS011;62414;53.436;8.828;2023-05-16T07:20:05;9.03;;;1.10;;
74059;SDS011;62414;53.436;8.828;2023-05-16T07:22:31;9.63;;;1.05;;
74059;SDS011;62414;53.436;8.828;2023-05-16T07:24:58;7.80;;;0.80;;
74059;SDS011;62414;53.436;8.828;2023-05-16T07:27:23;10.95;;;1.00;;
74059;SDS011;62414;53.436;8.828;2023-05-16T07:29:49;10.43;;;0.80;;
74059;SDS011;62414;53.436;8.828;2023-05-16T07:32:14;6.33;;;0.80;;
74059;SDS011;62414;53.436;8.828;2023-05-16T07:34:40;8.13;;;0.83;;
74059;SDS011;62414;53.436;8.828;2023-05-16T07:37:05;7.80;;;0.93;;
74059;SDS011;62414;53.436;8.828;2023-05-16T07:39:31;8.40;;;0.80;;
74059;SDS011;62414;53.436;8.828;2023-05-16T07:41:57;6.03;;;0.73;;
74059;SDS011;62414;53.436;8.828;2023-05-16T07:44:23;6.10;;;0.70;;
74059;SDS011;62414;53.436;8.828;2023-05-16T07:46:48;7.90;;;0.93;;
74059;SDS011;62414;53.436;8.828;2023-05-16T07:49:14;10.30;;;1.17;;
74059;SDS011;62414;53.436;8.828;2023-05-16T07:51:39;10.10;;;1.10;;
74059;SDS011;62414;53.436;8.828;2023-05-16T07:54:05;9.87;;;0.93;;
74059;SDS011;62414;53.436;8.828;2023-05-16T07:56:30;9.87;;;0.90;;
74059;SDS011;62414;53.436;8.828;2023-05-16T07:58:57;6.60;;;0.93;;
74059;SDS011;62414;53.436;8.828;2023-05-16T08:01:23;9.38;;;0.75;;
74059;SDS011;62414;53.436;8.828;2023-05-16T08:03:48;7.93;;;0.80;;
74059;SDS011;62414;53.436;8.828;2023-05-16T08:06:14;7.90;;;0.63;;
74059;SDS011;62414;53.436;8.828;2023-05-16T08:08:39;6.87;;;0.83;;
74059;SDS011;62414;53.436;8.828;2023-05-16T08:11:05;5.90;;;0.80;;
74059;SDS011;62414;53.436;8.828;2023-05-16T08:13:30;9.98;;;0.77;;
74059;SDS011;62414;53.436;8.828;2023-05-16T08:15:57;9.00;;;0.70;;
74059;SDS011;62414;53.436;8.828;2023-05-16T08:18:22;4.32;;;0.63;;
74059;SDS011;62414;53.436;8.828;2023-05-16T08:20:48;7.07;;;0.90;;
74059;SDS011;62414;53.436;8.828;2023-05-16T08:23:13;7.47;;;0.90;;
74059;SDS011;62414;53.436;8.828;2023-05-16T08:25:39;7.15;;;0.70;;
74059;SDS011;62414;53.436;8.828;2023-05-16T08:28:04;8.23;;;0.80;;
74059;SDS011;62414;53.436;8.828;2023-05-16T08:30:30;5.40;;;0.80;;
74059;SDS011;62414;53.436;8.828;2023-05-16T08:32:56;5.22;;;0.70;;
74059;SDS011;62414;53.436;8.828;2023-05-16T08:35:22;5.33;;;0.63;;
74059;SDS011;62414;53.436;8.828;2023-05-16T08:37:47;7.97;;;0.77;;
74059;SDS011;62414;53.436;8.828;2023-05-16T08:40:13;5.90;;;0.90;;
74059;SDS011;62414;53.436;8.828;2023-05-16T08:42:38;6.43;;;0.85;;
74059;SDS011;62414;53.436;8.828;2023-05-16T08:45:05;5.70;;;0.70;;
74059;SDS011;62414;53.436;8.828;2023-05-16T08:47:31;4.90;;;0.60;;
74059;SDS011;62414;53.436;8.828;2023-05-16T08:49:58;6.60;;;0.83;;
74059;SDS011;62414;53.436;8.828;2023-05-16T08:52:25;8.75;;;0.70;;
74059;SDS011;62414;53.436;8.828;2023-05-16T08:54:51;9.27;;;1.02;;
74059;SDS011;62414;53.436;8.828;2023-05-16T08:57:17;5.90;;;0.90;;
74059;SDS011;62414;53.436;8.828;2023-05-16T08:59:43;7.68;;;0.80;;
74059;SDS011;62414;53.436;8.828;2023-05-16T09:02:09;6.20;;;1.10;;
74059;SDS011;62414;53.436;8.828;2023-05-16T09:04:34;7.67;;;0.90;;
74059;SDS011;62414;53.436;8.828;2023-05-16T09:07:02;7.13;;;0.80;;
74059;SDS011;62414;53.436;8.828;2023-05-16T09:09:27;11.77;;;1.00;;
74059;SDS011;62414;53.436;8.828;2023-05-16T09:11:52;8.23;;;0.90;;
74059;SDS011;62414;53.436;8.828;2023-05-16T09:14:18;7.27;;;0.87;;
74059;SDS011;62414;53.436;8.828;2023-05-16T09:16:44;8.30;;;0.90;;
74059;SDS011;62414;53.436;8.828;2023-05-16T09:19:11;8.40;;;1.10;;
74059;SDS011;62414;53.436;8.828;2023-05-16T09:21:37;7.70;;;0.90;;
74059;SDS011;62414;53.436;8.828;2023-05-16T09:24:04;8.23;;;1.00;;
74059;SDS011;62414;53.436;8.828;2023-05-16T09:26:30;8.95;;;0.70;;
74059;SDS011;62414;53.436;8.828;2023-05-16T09:28:56;10.18;;;0.93;;
74059;SDS011;62414;53.436;8.828;2023-05-16T09:31:22;4.53;;;0.87;;
74059;SDS011;62414;53.436;8.828;2023-05-16T09:33:49;4.72;;;0.70;;
74059;SDS011;62414;53.436;8.828;2023-05-16T09:36:14;5.27;;;0.50;;
74059;SDS011;62414;53.436;8.828;2023-05-16T09:38:40;3.83;;;0.50;;
74059;SDS011;62414;53.436;8.828;2023-05-16T09:41:07;7.17;;;0.70;;
74059;SDS011;62414;53.436;8.828;2023-05-16T09:43:33;5.90;;;0.80;;
74059;SDS011;62414;53.436;8.828;2023-05-16T09:46:02;6.80;;;0.90;;
74059;SDS011;62414;53.436;8.828;2023-05-16T09:48:28;8.37;;;0.80;;
74059;SDS011;62414;53.436;8.828;2023-05-16T09:50:54;6.13;;;0.65;;
74059;SDS011;62414;53.436;8.828;2023-05-16T09:53:26;5.77;;;0.70;;
74059;SDS011;62414;53.436;8.828;2023-05-16T09:55:59;5.88;;;0.70;;
74059;SDS011;62414;53.436;8.828;2023-05-16T09:58:28;11.98;;;0.95;;
74059;SDS011;62414;53.436;8.828;2023-05-16T10:00:54;8.77;;;0.90;;
74059;SDS011;62414;53.436;8.828;2023-05-16T10:03:20;6.60;;;0.90;;
74059;SDS011;62414;53.436;8.828;2023-05-16T10:05:45;8.20;;;1.07;;
74059;SDS011;62414;53.436;8.828;2023-05-16T10:08:11;7.20;;;0.98;;
74059;SDS011;62414;53.436;8.828;2023-05-16T10:10:37;7.03;;;0.90;;
74059;SDS011;62414;53.436;8.828;2023-05-16T10:13:03;7.72;;;0.80;;
74059;SDS011;62414;53.436;8.828;2023-05-16T10:15:31;7.78;;;0.80;;
74059;SDS011;62414;53.436;8.828;2023-05-16T10:17:57;4.53;;;0.60;;
74059;SDS011;62414;53.436;8.828;2023-05-16T10:20:23;4.55;;;0.60;;
74059;SDS011;62414;53.436;8.828;2023-05-16T10:22:49;3.08;;;0.50;;
74059;SDS011;62414;53.436;8.828;2023-05-16T10:25:16;4.78;;;0.63;;
74059;SDS011;62414;53.436;8.828;2023-05-16T10:27:46;3.75;;;0.52;;
74059;SDS011;62414;53.436;8.828;2023-05-16T10:30:11;5.93;;;0.80;;
74059;SDS011;62414;53.436;8.828;2023-05-16T10:32:38;3.77;;;0.70;;
74059;SDS011;62414;53.436;8.828;2023-05-16T10:35:04;3.28;;;0.65;;
74059;SDS011;62414;53.436;8.828;2023-05-16T10:37:29;4.18;;;0.70;;
74059;SDS011;62414;53.436;8.828;2023-05-16T10:39:56;3.30;;;0.60;;
74059;SDS011;62414;53.436;8.828;2023-05-16T10:42:21;4.43;;;0.93;;
74059;SDS011;62414;53.436;8.828;2023-05-16T10:44:47;6.53;;;0.70;;
74059;SDS011;62414;53.436;8.828;2023-05-16T10:47:13;6.30;;;0.80;;
74059;SDS011;62414;53.436;8.828;2023-05-16T10:49:44;4.43;;;0.63;;
74059;SDS011;62414;53.436;8.828;2023-05-16T10:52:10;4.63;;;0.50;;
74059;SDS011;62414;53.436;8.828;2023-05-16T10:54:37;4.93;;;0.70;;
74059;SDS011;62414;53.436;8.828;2023-05-16T10:57:03;6.20;;;0.70;;
74059;SDS011;62414;53.436;8.828;2023-05-16T10:59:30;6.20;;;0.60;;
74059;SDS011;62414;53.436;8.828;2023-05-16T11:02:05;6.68;;;0.82;;
74059;SDS011;62414;53.436;8.828;2023-05-16T11:04:48;6.37;;;0.90;;
74059;SDS011;62414;53.436;8.828;2023-05-16T11:07:14;10.35;;;1.02;;
74059;SDS011;62414;53.436;8.828;2023-05-16T11:09:42;8.55;;;1.50;;
74059;SDS011;62414;53.436;8.828;2023-05-16T11:12:08;7.10;;;1.02;;
74059;SDS011;62414;53.436;8.828;2023-05-16T11:14:35;8.77;;;1.27;;
74059;SDS011;62414;53.436;8.828;2023-05-16T11:17:02;11.30;;;1.35;;
74059;SDS011;62414;53.436;8.828;2023-05-16T11:19:32;7.43;;;1.00;;
74059;SDS011;62414;53.436;8.828;2023-05-16T11:24:48;8.33;;;1.30;;
74059;SDS011;62414;53.436;8.828;2023-05-16T11:27:18;8.30;;;1.27;;
74059;SDS011;62414;53.436;8.828;2023-05-16T11:29:45;6.28;;;0.90;;
74059;SDS011;62414;53.436;8.828;2023-05-16T11:32:10;8.80;;;1.50;;
74059;SDS011;62414;53.436;8.828;2023-05-16T11:34:36;7.90;;;0.93;;
74059;SDS011;62414;53.436;8.828;2023-05-16T11:37:01;7.37;;;1.03;;
74059;SDS011;62414;53.436;8.828;2023-05-16T11:39:29;4.10;;;0.70;;
74059;SDS011;62414;53.436;8.828;2023-05-16T11:41:55;9.45;;;1.33;;
74059;SDS011;62414;53.436;8.828;2023-05-16T11:44:20;6.03;;;0.97;;
74059;SDS011;62414;53.436;8.828;2023-05-16T11:46:46;8.60;;;1.67;;
74059;SDS011;62414;53.436;8.828;2023-05-16T11:49:11;8.10;;;1.13;;
74059;SDS011;62414;53.436;8.828;2023-05-16T11:51:37;8.50;;;0.97;;
74059;SDS011;62414;53.436;8.828;2023-05-16T11:54:03;10.67;;;1.10;;
74059;SDS011;62414;53.436;8.828;2023-05-16T11:56:29;6.87;;;1.10;;
74059;SDS011;62414;53.436;8.828;2023-05-16T11:58:55;7.47;;;1.08;;
74059;SDS011;62414;53.436;8.828;2023-05-16T12:01:21;7.77;;;0.80;;
74059;SDS011;62414;53.436;8.828;2023-05-16T12:03:52;6.37;;;1.00;;
74059;SDS011;62414;53.436;8.828;2023-05-16T12:06:18;7.53;;;0.80;;
74059;SDS011;62414;53.436;8.828;2023-05-16T12:08:48;5.93;;;0.90;;
74059;SDS011;62414;53.436;8.828;2023-05-16T12:11:14;6.85;;;0.90;;
74059;SDS011;62414;53.436;8.828;2023-05-16T12:13:40;7.77;;;0.87;;
74059;SDS011;62414;53.436;8.828;2023-05-16T12:16:06;6.73;;;0.80;;
74059;SDS011;62414;53.436;8.828;2023-05-16T12:18:31;8.30;;;0.80;;
74059;SDS011;62414;53.436;8.828;2023-05-16T12:20:57;7.77;;;1.20;;
74059;SDS011;62414;53.436;8.828;2023-05-16T12:23:22;5.50;;;1.07;;
74059;SDS011;62414;53.436;8.828;2023-05-16T12:25:50;9.43;;;1.20;;
74059;SDS011;62414;53.436;8.828;2023-05-16T12:28:16;8.40;;;1.55;;
74059;SDS011;62414;53.436;8.828;2023-05-16T12:30:43;8.53;;;0.87;;
74059;SDS011;62414;53.436;8.828;2023-05-16T12:33:09;5.47;;;0.70;;
74059;SDS011;62414;53.436;8.828;2023-05-16T12:35:37;3.15;;;0.40;;
74059;SDS011;62414;53.436;8.828;2023-05-16T12:38:04;3.60;;;0.57;;
74059;SDS011;62414;53.436;8.828;2023-05-16T12:40:29;4.38;;;0.70;;
74059;SDS011;62414;53.436;8.828;2023-05-16T12:42:55;6.53;;;0.60;;
74059;SDS011;62414;53.436;8.828;2023-05-16T12:45:21;5.47;;;0.60;;
74059;SDS011;62414;53.436;8.828;2023-05-16T12:47:48;10.13;;;1.30;;
74059;SDS011;62414;53.436;8.828;2023-05-16T12:50:14;7.13;;;1.15;;
74059;SDS011;62414;53.436;8.828;2023-05-16T12:52:46;5.73;;;0.90;;
74059;SDS011;62414;53.436;8.828;2023-05-16T12:55:12;6.85;;;1.10;;
74059;SDS011;62414;53.436;8.828;2023-05-16T12:57:40;5.38;;;0.90;;
74059;SDS011;62414;53.436;8.828;2023-05-16T13:00:06;6.20;;;0.77;;
74059;SDS011;62414;53.436;8.828;2023-05-16T13:02:32;7.95;;;1.05;;
74059;SDS011;62414;53.436;8.828;2023-05-16T13:04:59;8.67;;;1.37;;
74059;SDS011;62414;53.436;8.828;2023-05-16T13:07:24;7.28;;;1.13;;
74059;SDS011;62414;53.436;8.828;2023-05-16T13:09:50;9.17;;;0.97;;
74059;SDS011;62414;53.436;8.828;2023-05-16T13:12:15;8.18;;;1.08;;
74059;SDS011;62414;53.436;8.828;2023-05-16T13:14:41;6.33;;;0.97;;
74059;SDS011;62414;53.436;8.828;2023-05-16T13:17:06;9.60;;;0.90;;
74059;SDS011;62414;53.436;8.828;2023-05-16T13:19:31;5.88;;;0.80;;
74059;SDS011;62414;53.436;8.828;2023-05-16T13:21:58;5.37;;;0.80;;
74059;SDS011;62414;53.436;8.828;2023-05-16T13:24:24;4.53;;;0.80;;
74059;SDS011;62414;53.436;8.828;2023-05-16T13:26:49;4.93;;;1.00;;
74059;SDS011;62414;53.436;8.828;2023-05-16T13:29:14;5.00;;;0.70;;
74059;SDS011;62414;53.436;8.828;2023-05-16T13:31:40;5.17;;;0.83;;
74059;SDS011;62414;53.436;8.828;2023-05-16T13:34:05;4.60;;;0.80;;
74059;SDS011;62414;53.436;8.828;2023-05-16T13:36:31;8.07;;;1.20;;
74059;SDS011;62414;53.436;8.828;2023-05-16T13:38:57;7.00;;;1.00;;
74059;SDS011;62414;53.436;8.828;2023-05-16T13:41:23;8.40;;;1.02;;
74059;SDS011;62414;53.436;8.828;2023-05-16T13:43:48;9.30;;;1.50;;
74059;SDS011;62414;53.436;8.828;2023-05-16T13:46:14;10.27;;;1.35;;
74059;SDS011;62414;53.436;8.828;2023-05-16T13:48:39;11.90;;;1.30;;
74059;SDS011;62414;53.436;8.828;2023-05-16T13:51:05;7.00;;;0.93;;
74059;SDS011;62414;53.436;8.828;2023-05-16T13:53:30;5.90;;;1.10;;
74059;SDS011;62414;53.436;8.828;2023-05-16T13:55:57;6.93;;;1.00;;
74059;SDS011;62414;53.436;8.828;2023-05-16T13:58:22;8.68;;;1.15;;
74059;SDS011;62414;53.436;8.828;2023-05-16T14:00:48;9.40;;;1.40;;
74059;SDS011;62414;53.436;8.828;2023-05-16T14:03:13;8.97;;;1.20;;
74059;SDS011;62414;53.436;8.828;2023-05-16T14:05:38;9.00;;;1.40;;
74059;SDS011;62414;53.436;8.828;2023-05-16T14:08:04;6.60;;;0.88;;
74059;SDS011;62414;53.436;8.828;2023-05-16T14:10:30;6.93;;;0.90;;
74059;SDS011;62414;53.436;8.828;2023-05-16T14:12:57;3.40;;;0.93;;
74059;SDS011;62414;53.436;8.828;2023-05-16T14:15:22;5.30;;;0.73;;
74059;SDS011;62414;53.436;8.828;2023-05-16T14:17:47;5.85;;;0.77;;
74059;SDS011;62414;53.436;8.828;2023-05-16T14:20:13;9.07;;;1.00;;
74059;SDS011;62414;53.436;8.828;2023-05-16T14:22:38;6.30;;;0.80;;
74059;SDS011;62414;53.436;8.828;2023-05-16T14:25:04;6.73;;;1.00;;
74059;SDS011;62414;53.436;8.828;2023-05-16T14:27:30;6.93;;;0.98;;
74059;SDS011;62414;53.436;8.828;2023-05-16T14:29:57;10.70;;;1.27;;
74059;SDS011;62414;53.436;8.828;2023-05-16T14:32:22;7.30;;;1.00;;
74059;SDS011;62414;53.436;8.828;2023-05-16T14:34:48;8.18;;;1.15;;
74059;SDS011;62414;53.436;8.828;2023-05-16T14:37:13;9.23;;;1.30;;
74059;SDS011;62414;53.436;8.828;2023-05-16T14:39:39;8.33;;;1.23;;